Time;durP1;ratioP1;P1;durP2;ratioP2;P2;SDS_P1;SDS_P2;PMS_P1;PMS_P2;Temp;Humidity;BMP_temperature;BMP_pressure;BME280_temperature;BME280_humidity;BME280_pressure;Samples;Min_cycle;Max_cycle;Signal;HPM_P1;HPM_P2
2021/08/15 00:01:59;;;;;;;8.90;5.45;;;;;;;23.33;43.19;99884.44;5052768;28;20016;-69
2021/08/15 00:04:25;;;;;;;10.80;5.70;;;;;;;23.33;43.13;99884.44;5070799;28;20043;-69
2021/08/15 00:06:52;;;;;;;7.55;5.35;;;;;;;23.42;43.06;99887.69;5052362;28;20124;-69
2021/08/15 00:09:18;;;;;;;9.05;6.03;;;;;;;23.42;42.88;99886.84;5070708;28;20530;-66
2021/08/15 00:11:43;;;;;;;13.65;6.05;;;;;;;23.46;43.32;99884.00;5052585;28;20680;-68
2021/08/15 00:14:09;;;;;;;14.05;6.32;;;;;;;23.13;44.37;99893.41;5071054;28;20036;-69
2021/08/15 00:16:35;;;;;;;9.80;5.75;;;;;;;23.25;43.76;99880.78;5070420;28;20036;-67
2021/08/15 00:19:05;;;;;;;10.73;6.43;;;;;;;22.94;44.42;99886.13;5070645;28;20062;-68
2021/08/15 00:21:32;;;;;;;13.32;6.22;;;;;;;22.61;45.48;99885.34;5052498;28;20041;-68
2021/08/15 00:23:59;;;;;;;10.05;6.15;;;;;;;22.77;45.31;99881.28;5070751;28;20047;-68
2021/08/15 00:26:24;;;;;;;11.18;5.53;;;;;;;22.64;45.40;99881.69;5070387;28;20037;-67
2021/08/15 00:28:50;;;;;;;10.52;6.38;;;;;;;22.49;46.17;99883.75;5052349;28;20025;-67
2021/08/15 00:31:16;;;;;;;7.38;5.60;;;;;;;22.34;46.27;99882.09;5070402;28;20028;-66
2021/08/15 00:33:41;;;;;;;11.02;6.72;;;;;;;22.67;45.49;99883.72;5052336;28;20033;-66
2021/08/15 00:36:07;;;;;;;9.82;6.13;;;;;;;22.49;45.98;99880.88;5070428;28;20033;-66
2021/08/15 00:38:32;;;;;;;9.73;6.55;;;;;;;22.63;45.47;99882.09;5051992;28;20052;-66
2021/08/15 00:40:58;;;;;;;14.07;6.78;;;;;;;22.41;46.34;99894.28;5070267;28;20021;-66
2021/08/15 00:43:23;;;;;;;7.28;5.75;;;;;;;22.37;46.43;99884.09;5070597;28;20043;-66
2021/08/15 00:45:49;;;;;;;11.30;6.72;;;;;;;22.21;46.47;99888.19;5070036;28;20467;-69
2021/08/15 00:48:14;;;;;;;10.27;6.70;;;;;;;22.34;46.13;99888.56;5052281;28;20024;-68
2021/08/15 00:50:40;;;;;;;15.23;7.07;;;;;;;22.26;46.78;99890.59;5070051;28;20021;-69
2021/08/15 00:53:06;;;;;;;11.15;6.20;;;;;;;22.43;46.83;99888.16;5070424;28;20033;-69
2021/08/15 00:55:33;;;;;;;11.43;6.15;;;;;;;22.38;46.84;99886.53;5070180;28;20033;-67
2021/08/15 00:58:00;;;;;;;9.15;6.18;;;;;;;22.18;47.58;99886.13;5051840;28;20033;-68
2021/08/15 01:00:25;;;;;;;8.27;6.13;;;;;;;22.17;46.85;99890.19;5072741;28;20033;-67
2021/08/15 01:02:51;;;;;;;8.50;6.57;;;;;;;22.09;47.75;99885.72;5073860;28;20032;-69
2021/08/15 01:05:17;;;;;;;10.60;6.55;;;;;;;22.05;48.09;99887.72;5074131;28;20516;-67
2021/08/15 01:07:47;;;;;;;14.60;6.18;;;;;;;21.98;48.15;99889.34;5074033;28;20028;-69
2021/08/15 01:10:14;;;;;;;7.25;5.57;;;;;;;22.05;47.85;99882.84;5074002;28;20040;-67
2021/08/15 01:12:39;;;;;;;10.35;6.13;;;;;;;22.08;47.96;99889.75;5055865;28;20029;-66
2021/08/15 01:15:06;;;;;;;8.23;6.63;;;;;;;22.01;48.13;99882.00;5073849;28;20032;-69
2021/08/15 01:17:31;;;;;;;8.48;6.53;;;;;;;21.98;47.97;99885.69;5073929;28;20032;-66
2021/08/15 01:19:57;;;;;;;10.48;7.65;;;;;;;21.77;48.43;99880.75;5073732;28;20037;-69
2021/08/15 01:22:26;;;;;;;10.15;6.57;;;;;;;21.66;49.16;99881.53;5073628;28;20066;-66
2021/08/15 01:24:56;;;;;;;11.02;6.65;;;;;;;21.61;48.79;99879.06;5073790;28;20032;-69
2021/08/15 01:27:22;;;;;;;13.15;7.00;;;;;;;21.68;48.78;99875.44;5055443;28;20036;-66
2021/08/15 01:29:49;;;;;;;10.00;7.18;;;;;;;21.64;48.89;99886.78;5073491;28;20028;-67
2021/08/15 01:32:20;;;;;;;12.00;6.63;;;;;;;21.74;48.53;99880.34;5073302;28;20137;-69
2021/08/15 01:34:45;;;;;;;13.07;7.57;;;;;;;21.54;48.82;99881.84;5055509;28;20029;-68
2021/08/15 01:37:11;;;;;;;10.13;6.78;;;;;;;21.56;48.71;99874.56;5073223;28;20024;-66
2021/08/15 01:39:43;;;;;;;8.50;6.72;;;;;;;21.59;48.03;99878.63;5055358;28;20528;-69
2021/08/15 01:42:11;;;;;;;16.58;6.72;;;;;;;22.00;46.40;99874.69;5055371;28;20473;-69
2021/08/15 01:44:37;;;;;;;9.98;6.55;;;;;;;21.79;46.91;99878.31;5055315;28;20507;-69
2021/08/15 01:47:02;;;;;;;11.52;7.10;;;;;;;21.71;47.31;99878.28;5073204;28;20028;-66
2021/08/15 01:49:28;;;;;;;14.32;8.23;;;;;;;21.21;48.78;99878.03;5073130;28;20062;-67
2021/08/15 01:51:53;;;;;;;13.23;7.10;;;;;;;21.45;48.24;99880.19;5073031;28;20021;-69
2021/08/15 01:54:19;;;;;;;11.23;8.02;;;;;;;21.06;49.28;99877.97;5072942;28;20094;-68
2021/08/15 01:56:44;;;;;;;12.77;7.90;;;;;;;20.99;49.64;99883.59;5055066;28;20040;-69
2021/08/15 01:59:09;;;;;;;21.92;8.85;;;;;;;20.95;49.44;99885.63;5073511;28;20509;-68
2021/08/15 02:01:35;;;;;;;14.77;8.70;;;;;;;20.65;50.27;99884.56;5059027;28;20025;-69
2021/08/15 02:04:00;;;;;;;11.35;8.65;;;;;;;20.51;50.55;99878.78;5073447;28;20095;-68
2021/08/15 02:06:26;;;;;;;16.45;8.55;;;;;;;20.49;50.28;99873.47;5072741;28;20032;-66
2021/08/15 02:08:51;;;;;;;13.32;8.23;;;;;;;20.53;50.38;99877.19;5073233;28;20024;-66
2021/08/15 02:11:18;;;;;;;16.40;9.00;;;;;;;20.37;51.13;99882.28;5072229;28;20035;-66
2021/08/15 02:13:44;;;;;;;15.35;8.70;;;;;;;20.50;50.76;99891.34;5073165;28;20028;-66
2021/08/15 02:16:10;;;;;;;13.57;8.73;;;;;;;20.30;50.79;99883.88;5072788;28;20072;-66
2021/08/15 02:18:35;;;;;;;11.98;8.23;;;;;;;20.41;50.65;99886.00;5072858;28;20056;-69
2021/08/15 02:21:01;;;;;;;13.65;8.57;;;;;;;20.31;51.09;99885.50;5072732;28;20074;-66
2021/08/15 02:23:26;;;;;;;16.75;8.52;;;;;;;20.56;50.58;99895.44;5072929;28;20056;-67
2021/08/15 02:25:53;;;;;;;10.07;8.38;;;;;;;20.46;50.93;99888.47;5040627;28;20035;-67
2021/08/15 02:28:19;;;;;;;12.77;9.05;;;;;;;20.36;51.18;99892.03;5054698;28;20024;-69
2021/08/15 02:30:45;;;;;;;18.63;10.23;;;;;;;20.55;50.93;99890.97;5054375;28;20037;-67
2021/08/15 02:33:10;;;;;;;12.85;8.98;;;;;;;20.58;50.76;99881.69;5072697;28;20033;-69
2021/08/15 02:35:36;;;;;;;13.48;9.63;;;;;;;20.46;50.84;99888.47;5072642;28;20037;-69
2021/08/15 02:38:02;;;;;;;10.88;8.52;;;;;;;20.24;51.50;99881.78;5072252;28;20049;-66
2021/08/15 02:40:27;;;;;;;13.07;9.25;;;;;;;20.04;52.09;99888.50;5072158;28;20040;-66
2021/08/15 02:42:54;;;;;;;18.00;9.35;;;;;;;20.40;51.32;99890.84;5072291;28;20414;-69
2021/08/15 02:45:24;;;;;;;22.52;9.27;;;;;;;20.12;51.70;99886.56;5072282;28;20512;-67
2021/08/15 02:47:50;;;;;;;;;;;;;;;20.11;51.86;99884.91;5054564;28;20033;-68
2021/08/15 02:50:16;;;;;;;19.38;9.55;;;;;;;20.23;51.79;99883.00;5072197;28;19916;-67
2021/08/15 02:52:43;;;;;;;18.80;8.45;;;;;;;20.18;51.86;99884.19;5072142;28;20405;-68
2021/08/15 02:55:09;;;;;;;21.15;9.50;;;;;;;20.06;52.09;99888.09;5072199;28;20427;-69
2021/08/15 02:57:35;;;;;;;15.65;9.52;;;;;;;19.99;52.50;99883.16;5071729;28;20032;-67
2021/08/15 03:00:00;;;;;;;13.20;7.65;;;;;;;20.41;51.05;99880.31;5072039;28;20017;-67
2021/08/15 03:02:26;;;;;;;12.05;8.65;;;;;;;20.69;50.22;99885.41;5071914;28;20185;-68
2021/08/15 03:04:55;;;;;;;11.38;8.68;;;;;;;20.71;50.16;99894.38;5071645;28;20033;-69
2021/08/15 03:07:21;;;;;;;10.48;8.25;;;;;;;20.80;49.41;99885.50;5071837;28;20040;-67
2021/08/15 03:09:47;;;;;;;14.15;8.82;;;;;;;20.39;51.03;99894.91;5071476;28;20063;-69
2021/08/15 03:12:12;;;;;;;12.48;8.93;;;;;;;20.10;52.65;99893.81;5053751;28;20052;-67
2021/08/15 03:14:38;;;;;;;21.80;10.75;;;;;;;20.20;52.41;99890.28;5071529;28;20107;-68
2021/08/15 03:17:05;;;;;;;15.40;9.38;;;;;;;20.19;52.35;99891.47;5071695;28;20032;-69
2021/08/15 03:19:30;;;;;;;24.20;10.93;;;;;;;20.11;53.00;99895.44;5071419;28;20090;-69
2021/08/15 03:21:56;;;;;;;28.20;9.52;;;;;;;20.15;52.92;99894.28;5052620;28;20436;-68
2021/08/15 03:24:21;;;;;;;18.13;9.50;;;;;;;20.14;52.19;99891.81;5071425;28;20082;-67
2021/08/15 03:26:47;;;;;;;20.13;10.30;;;;;;;20.18;52.07;99895.53;5071204;28;20033;-68
2021/08/15 03:29:14;;;;;;;21.02;9.80;;;;;;;20.19;52.09;99895.13;5053365;28;20047;-68
2021/08/15 03:31:40;;;;;;;22.15;10.55;;;;;;;20.39;51.62;99896.91;5071511;28;20452;-69
2021/08/15 03:34:07;;;;;;;20.83;10.63;;;;;;;20.68;50.52;99902.88;5053448;28;20035;-69
2021/08/15 03:36:32;;;;;;;23.25;9.77;;;;;;;20.51;50.88;99905.16;5070950;28;20036;-68
2021/08/15 03:38:58;;;;;;;27.38;10.02;;;;;;;20.28;51.08;99903.34;5070900;28;20052;-69
2021/08/15 03:41:23;;;;;;;14.10;9.80;;;;;;;20.03;52.25;99900.25;5071014;28;20536;-68
2021/08/15 03:43:49;;;;;;;24.92;10.55;;;;;;;20.06;52.38;99903.13;5071301;28;20064;-68
2021/08/15 03:46:14;;;;;;;20.15;9.95;;;;;;;19.91;53.11;99904.16;5071155;28;20036;-69
2021/08/15 03:48:40;;;;;;;19.33;10.63;;;;;;;20.09;53.00;99909.22;5071066;28;20016;-71
2021/08/15 03:51:05;;;;;;;29.75;10.65;;;;;;;20.33;52.18;99908.66;5071103;28;20024;-71
2021/08/15 03:53:31;;;;;;;22.05;10.75;;;;;;;20.44;51.82;99905.91;5070973;28;20093;-75
2021/08/15 03:55:57;;;;;;;18.10;10.15;;;;;;;20.53;51.80;99904.75;5070762;28;20036;-75
2021/08/15 03:58:22;;;;;;;18.50;9.55;;;;;;;20.56;51.77;99904.78;5070811;28;20039;-70
2021/08/15 04:00:48;;;;;;;28.23;10.05;;;;;;;20.53;51.91;99901.91;5045656;28;20071;-70
2021/08/15 04:03:13;;;;;;;15.43;9.68;;;;;;;20.75;51.00;99905.75;5069415;28;20067;-71
2021/08/15 04:05:40;;;;;;;16.73;10.35;;;;;;;20.61;51.71;99904.41;5070595;28;20508;-75
2021/08/15 04:08:06;;;;;;;15.45;10.25;;;;;;;20.73;51.47;99902.47;5070759;28;20525;-75
2021/08/15 04:10:32;;;;;;;16.33;10.70;;;;;;;20.91;50.77;99902.63;5070431;28;20060;-71
2021/08/15 04:12:58;;;;;;;17.67;10.27;;;;;;;20.87;50.88;99908.28;5070548;28;20027;-76
2021/08/15 04:15:23;;;;;;;31.63;11.50;;;;;;;20.81;51.29;99903.34;5070463;28;20076;-71
2021/08/15 04:17:49;;;;;;;22.50;10.27;;;;;;;20.86;51.30;99903.81;5070642;28;20123;-76
2021/08/15 04:20:15;;;;;;;15.60;9.95;;;;;;;20.95;51.18;99909.19;5070338;28;20029;-75
2021/08/15 04:22:40;;;;;;;14.15;10.05;;;;;;;21.07;50.76;99899.50;5070412;28;20031;-70
2021/08/15 04:25:06;;;;;;;14.07;10.75;;;;;;;20.75;51.53;99906.56;5052489;28;20071;-76
2021/08/15 04:27:32;;;;;;;15.65;10.48;;;;;;;20.68;51.91;99902.88;5052297;28;20082;-70
2021/08/15 04:29:58;;;;;;;15.52;10.63;;;;;;;20.65;51.97;99901.63;5070552;28;20033;-77
2021/08/15 04:32:23;;;;;;;20.30;10.10;;;;;;;20.33;52.77;99905.81;5052173;28;20029;-70
2021/08/15 04:34:49;;;;;;;34.97;11.38;;;;;;;20.37;52.89;99903.00;5070293;28;20561;-75
2021/08/15 04:37:17;;;;;;;20.33;10.18;;;;;;;20.59;52.19;99898.31;5052157;28;20086;-74
2021/08/15 04:39:43;;;;;;;17.17;8.80;;;;;;;20.83;51.53;99900.97;5052178;28;20082;-72
2021/08/15 04:42:08;;;;;;;20.65;10.18;;;;;;;20.85;51.56;99896.50;5070586;28;20032;-71
2021/08/15 04:44:34;;;;;;;19.20;10.25;;;;;;;20.93;51.33;99897.38;5052516;28;20036;-73
2021/08/15 04:46:59;;;;;;;17.38;10.35;;;;;;;21.15;50.86;99898.34;5052198;28;20024;-73
2021/08/15 04:49:25;;;;;;;21.27;9.10;;;;;;;21.26;50.87;99895.53;5070273;28;20502;-70
2021/08/15 04:51:50;;;;;;;16.83;10.85;;;;;;;21.05;51.54;99896.25;5070302;28;20024;-73
2021/08/15 04:54:16;;;;;;;28.65;10.23;;;;;;;21.13;51.01;99897.94;5070122;28;20037;-71
2021/08/15 04:56:41;;;;;;;16.23;8.88;;;;;;;21.26;51.10;99901.22;5070207;28;20406;-73
2021/08/15 04:59:06;;;;;;;10.60;8.70;;;;;;;21.18;50.90;99903.22;5070537;28;20052;-73
2021/08/15 05:01:32;;;;;;;24.38;9.15;;;;;;;21.48;50.58;99903.38;5070297;28;20036;-71
2021/08/15 05:03:57;;;;;;;12.50;8.27;;;;;;;21.39;50.40;99893.19;5052296;28;20027;-74
2021/08/15 05:06:23;;;;;;;59.42;10.52;;;;;;;21.39;50.31;99898.88;5052087;28;20033;-70
2021/08/15 05:08:48;;;;;;;14.73;8.95;;;;;;;21.41;50.43;99898.47;5070458;28;20052;-74
2021/08/15 05:11:15;;;;;;;14.73;8.55;;;;;;;21.36;50.59;99896.84;5069982;28;20028;-74
2021/08/15 05:13:40;;;;;;;15.40;9.85;;;;;;;21.52;50.37;99896.47;5052100;28;20032;-71
2021/08/15 05:16:06;;;;;;;13.68;8.88;;;;;;;21.61;50.37;99887.59;5070108;28;20037;-70
2021/08/15 05:18:31;;;;;;;17.02;9.57;;;;;;;21.73;50.10;99890.09;5051629;28;20040;-71
2021/08/15 05:20:57;;;;;;;14.85;9.18;;;;;;;21.83;49.41;99891.34;5070193;28;20439;-71
2021/08/15 05:23:22;;;;;;;13.57;9.32;;;;;;;21.89;48.97;99897.47;5070240;28;20028;-73
2021/08/15 05:25:48;;;;;;;13.88;9.07;;;;;;;21.87;49.22;99897.06;5069700;28;20880;-70
2021/08/15 05:28:13;;;;;;;15.73;9.35;;;;;;;22.00;48.90;99895.44;5070121;28;20065;-69
2021/08/15 05:30:39;;;;;;;17.15;8.85;;;;;;;21.99;48.97;99899.53;5069826;28;20041;-76
2021/08/15 05:33:04;;;;;;;17.10;9.23;;;;;;;22.18;48.50;99899.56;5051824;28;20025;-71
2021/08/15 05:35:30;;;;;;;14.73;9.68;;;;;;;22.32;47.78;99898.75;5069589;28;20064;-71
2021/08/15 05:37:58;;;;;;;13.20;9.00;;;;;;;22.37;47.67;99893.47;5051591;28;20116;-70
2021/08/15 05:40:24;;;;;;;19.83;8.55;;;;;;;22.43;46.87;99891.84;5069868;28;20024;-71
2021/08/15 05:42:49;;;;;;;13.88;8.45;;;;;;;22.59;46.89;99893.50;5051524;28;20031;-73
2021/08/15 05:45:15;;;;;;;10.10;8.70;;;;;;;22.76;46.41;99903.25;5070460;28;20021;-72
2021/08/15 05:47:40;;;;;;;18.58;8.23;;;;;;;22.89;45.95;99894.28;5073312;28;20078;-72
2021/08/15 05:50:06;;;;;;;9.82;8.68;;;;;;;22.84;46.25;99899.19;5073558;28;20054;-71
2021/08/15 05:52:31;;;;;;;12.82;8.40;;;;;;;23.00;46.23;99892.22;5073176;28;20064;-72
2021/08/15 05:54:58;;;;;;;11.40;8.32;;;;;;;23.06;45.86;99899.16;5073260;28;20025;-71
2021/08/15 05:57:23;;;;;;;14.40;7.63;;;;;;;23.14;45.74;99894.25;5073130;28;20037;-71
2021/08/15 05:59:49;;;;;;;19.17;8.40;;;;;;;23.24;45.20;99893.41;5073000;28;20039;-74
2021/08/15 06:02:14;;;;;;;10.10;8.48;;;;;;;23.41;45.01;99902.34;5073288;28;20025;-70
2021/08/15 06:04:40;;;;;;;11.18;7.97;;;;;;;23.62;44.69;99892.88;5054904;28;20555;-73
2021/08/15 06:07:05;;;;;;;11.02;8.10;;;;;;;23.60;44.11;99895.34;5072887;28;20040;-72
2021/08/15 06:09:31;;;;;;;12.15;7.88;;;;;;;23.68;43.76;99890.41;5072697;28;20107;-70
2021/08/15 06:11:56;;;;;;;12.27;8.13;;;;;;;23.64;43.63;99889.63;5072809;28;20078;-71
2021/08/15 06:14:22;;;;;;;21.60;8.45;;;;;;;23.84;43.14;99889.91;5054967;28;20062;-71
2021/08/15 06:16:47;;;;;;;10.27;7.03;;;;;;;23.81;42.96;99890.75;5072715;28;20417;-72
2021/08/15 06:19:13;;;;;;;9.73;6.90;;;;;;;23.85;43.16;99882.97;5072558;28;20070;-70
2021/08/15 06:21:39;;;;;;;11.82;8.25;;;;;;;23.96;42.98;99885.78;5072689;28;20032;-72
2021/08/15 06:24:05;;;;;;;13.85;7.55;;;;;;;24.06;43.03;99882.06;5073114;28;20104;-71
2021/08/15 06:26:31;;;;;;;13.93;8.68;;;;;;;24.10;42.69;99882.03;5072686;28;20082;-71
2021/08/15 06:28:57;;;;;;;16.73;7.85;;;;;;;24.21;42.58;99879.13;5054620;28;20027;-70
2021/08/15 06:31:24;;;;;;;10.25;7.05;;;;;;;24.36;42.05;99879.81;5072654;28;20033;-70
2021/08/15 06:33:50;;;;;;;11.32;7.50;;;;;;;24.44;42.13;99878.53;5072319;28;20043;-71
2021/08/15 06:36:16;;;;;;;7.88;6.50;;;;;;;24.53;41.93;99860.88;5054547;28;20036;-71
2021/08/15 06:38:42;;;;;;;11.50;7.45;;;;;;;24.54;42.15;99866.19;5072317;28;20053;-71
2021/08/15 06:41:08;;;;;;;11.55;7.13;;;;;;;24.63;42.00;99867.75;5072202;28;20031;-71
2021/08/15 06:43:34;;;;;;;11.40;7.00;;;;;;;24.79;41.27;99865.16;5072662;28;20067;-71
2021/08/15 06:45:59;;;;;;;15.55;7.95;;;;;;;24.80;41.59;99866.00;5072096;28;20482;-72
2021/08/15 06:48:25;;;;;;;11.30;7.82;;;;;;;24.90;41.32;99867.13;5071711;28;20021;-70
2021/08/15 06:50:57;;;;;;;15.02;7.80;;;;;;;24.90;40.94;99864.25;5071470;28;20036;-71
2021/08/15 06:53:23;;;;;;;9.98;7.18;;;;;;;25.02;41.43;99863.72;5071537;28;20031;-71
2021/08/15 06:55:48;;;;;;;13.48;9.50;;;;;;;25.14;40.83;99856.63;5053183;28;20045;-71
2021/08/15 06:58:14;;;;;;;26.38;11.68;;;;;;;25.19;41.39;99863.94;5072139;28;20035;-71
2021/08/15 07:00:39;;;;;;;12.45;7.53;;;;;;;25.30;39.80;99861.75;5071804;28;20036;-70
2021/08/15 07:03:06;;;;;;;11.70;7.35;;;;;;;25.37;40.23;99855.94;5072054;28;20505;-70
2021/08/15 07:05:32;;;;;;;26.13;8.48;;;;;;;25.45;41.43;99861.56;5052167;28;20029;-70
2021/08/15 07:07:58;;;;;;;12.50;6.72;;;;;;;25.61;40.23;99853.22;5071541;28;20170;-70
2021/08/15 07:10:23;;;;;;;9.63;6.50;;;;;;;25.70;39.62;99851.88;5053153;28;20040;-71
2021/08/15 07:12:53;;;;;;;11.35;7.10;;;;;;;25.78;39.87;99853.41;5071712;28;20246;-70
2021/08/15 07:15:19;;;;;;;;;;;;;;;25.84;40.04;99851.69;5071606;28;20103;-70
2021/08/15 07:17:45;;;;;;;11.02;7.20;;;;;;;25.92;39.22;99847.44;5070270;28;19999;-71
2021/08/15 07:20:11;;;;;;;9.45;6.35;;;;;;;25.98;39.54;99844.91;5052592;28;20033;-71
2021/08/15 07:22:36;;;;;;;8.90;5.97;;;;;;;26.06;39.83;99854.22;5070220;28;20048;-71
2021/08/15 07:25:03;;;;;;;8.77;7.75;;;;;;;26.27;39.81;99846.56;5070233;28;20501;-70
2021/08/15 07:27:31;;;;;;;9.50;6.80;;;;;;;26.37;38.25;99847.59;5058763;28;20436;-70
2021/08/15 07:29:58;;;;;;;11.93;6.88;;;;;;;26.43;37.76;99838.09;5060194;28;20028;-69
2021/08/15 07:32:23;;;;;;;15.95;7.03;;;;;;;26.50;37.98;99845.78;5047333;28;20066;-68
